Saint Helens, OR (97051)

3:00 AM PDT en Agosto 29, 2014 (GMT -0700)
Arbor Hill, Sykes Rd. | Change Station
CLOSE
Current Station
Estación meteorológica personal
Location: St. Helens, OR
Altura: 200 ft
Estaciones meteorológicas cercanas

Alt 200 ft 45.85 °N, 122.85 °W | Updated 5 minutes ago

Parcialmente nublado
Parcialmente nublado
63.9 ° F
Sensación térmica 63.9 ° F
N
2.0
Viento Variable Viento desde ONO
Gusts 3.0 mph

Hoy
Alta -- | Baja -- ° F
--% Posibilidad de precipitaciones
Ayer
Alta -- | Baja -- ° F
Precip. -- pul
6:28 AM 7:55 PM
Creciente, 13% visible
Presión 29.99 pul
Visibilidad 10.0 Millas
Nubes Despejado
Punto de rocío 60 ° F
Humedad 86%
Precipitaciones 0.00 pul
Espesor de la nieve No disponible.
UV 0 de una escala de 12
Polen 3.80 de una escala de 12
Calidad del aire No disponible.
Flu Activity No disponible.
METAR KSPB 290953Z AUTO 33004KT 10SM CLR 17/14 A2998 RMK AO2 SLP153 T01720144

More Conditions Fewer Conditions

Presión 29.99 pul
Visibilidad 10.0 Millas
Nubes Despejado
Punto de rocío 60 ° F
Humedad 86%
Precipitaciones 0.00 pul
Espesor de la nieve No disponible.
UV 0 de una escala de 12
Polen 3.80 de una escala de 12
Calidad del aire No disponible.
Flu Activity No disponible.
METAR KSPB 290953Z AUTO 33004KT 10SM CLR 17/14 A2998 RMK AO2 SLP153 T01720144

More Conditions Fewer Conditions

10-Day Weather Forecast

Almanac

Astronomía

Aug. 29, 2014 Salida Puesta
Hora real 6:28 AM PDT 7:55 PM PDT
Crepúsculo civil 5:57 AM PDT 8:25 PM PDT
Crepúsculo náutico 5:20 AM PDT 9:03 PM PDT
Crepúsculo astronómico 4:39 AM PDT 9:43 PM PDT
Luna 10:38 AM PDT 9:40 PM PDT
Horas de luz 14h 28m
Horas de luz
13h 26m
Tomorrow will be 3m 6s shorter.
Creciente, 13% of the Moon is Illuminated
Hoy
Creciente
Sep 2
Cuarto creciente
Sep 8
Luna llena
Sep 15
Cuarto menguante
Sep 24
Nueva

Extremos de hoy

Máximos del estado Bajos del estado

Community

WunderPhotos

Upload Photos

1,748,209 ¡fotos cargadas!

Nearby

Grosos de nieve

Estación Profundido Altura
Seine Creek 0 in 2000 ft
North Fork 1 in 3120 ft
Blazed Alder 0 in 3650 ft
Greenpoint 1 in 3200 ft
Red Hill 0 in 4400 ft

Actividad de terremotos

Ciudad Distance Mag. Tiempo y dato
No hay informes recientes de la actividad sísmica.
Magnitud mínima muestra es 2,5.

Temperaturas de aguas costeras

Lugar Temperatura
Astoria, OR 71.1 ° F
Westport, WA 57.9 ° F

Estaciones meteorológicas cercanas